ADDS METAR Data INFO
IDs: Format: Raw Decoded Include TAF

Data at: 1121 UTC 21 Feb 2018

KVTA 201454Z AUTO 20009KT 10SM CLR 19/13 A3017 RMK AO2 SLP214 T01890128 51008
KVTA 201354Z AUTO 19009KT 10SM CLR 17/12 A3017 RMK AO2 SLP214 T01720122
KVTA 201254Z AUTO 19006KT 10SM CLR 16/12 A3016 RMK AO2 SLP211 T01610122
KVTA 201154Z AUTO 19007KT 10SM BKN100 16/12 A3015 RMK AO2 SLP207 70021 T01610122 10167 20122 53008
KVTA 201054Z AUTO 20008KT 10SM OVC095 16/12 A3014 RMK AO2 SLP203 T01610117
KVTA 200954Z AUTO 20006KT 10SM OVC095 16/12 A3013 RMK AO2 SLP198 T01610117
KVTA 200854Z AUTO 20006KT 10SM BKN040 16/12 A3012 RMK AO2 SLP198 T01560117 51007
KVTA 200754Z AUTO 20006KT 10SM CLR 15/11 A3012 RMK AO2 SLP196 T01500111
KVTA 200654Z AUTO 00000KT 10SM CLR 14/10 A3011 RMK AO2 SLP194 T01390100
KVTA 200554Z AUTO 17003KT 10SM CLR 16/11 A3010 RMK AO2 SLP192 T01560106 10183 20150 51003
KVTA 200454Z AUTO 16007KT 10SM CLR 16/11 A3010 RMK AO2 SLP191 T01610111 401941006
KVTA 200354Z AUTO 19005KT 10SM CLR 16/12 A3010 RMK AO2 SLP192 T01610117
KVTA 200254Z AUTO 19005KT 10SM CLR 16/12 A3009 RMK AO2 SLP190 T01610117 51005
KVTA 200154Z AUTO 21006KT 10SM CLR 17/12 A3009 RMK AO2 SLP191 T01720122
KVTA 200054Z AUTO 20007KT 10SM CLR 18/12 A3008 RMK AO2 SLP186 T01780122
KVTA 192354Z AUTO 19006KT 10SM CLR 18/13 A3008 RMK AO2 SLP185 T01780128 10194 20156 53007